createdAt,value
2023-05-23T00:02:16.836Z,32.65
2023-05-23T00:04:44.378Z,30.65
2023-05-23T00:07:11.691Z,25.70
2023-05-23T00:09:38.969Z,23.30
2023-05-23T00:12:07.118Z,23.45
2023-05-23T00:14:35.543Z,21.65
2023-05-23T00:17:03.010Z,21.38
2023-05-23T00:19:30.450Z,21.60
2023-05-23T00:21:58.686Z,23.08
2023-05-23T00:24:27.247Z,19.73
2023-05-23T00:26:54.383Z,21.60
2023-05-23T00:29:21.585Z,18.77
2023-05-23T00:31:49.190Z,18.67
2023-05-23T00:34:20.366Z,16.98
2023-05-23T00:36:48.168Z,15.38
2023-05-23T00:39:20.075Z,17.25
2023-05-23T00:41:51.869Z,18.63
2023-05-23T00:44:20.310Z,20.70
2023-05-23T00:46:53.069Z,19.30
2023-05-23T00:49:20.804Z,19.92
2023-05-23T00:51:49.912Z,25.38
2023-05-23T00:54:31.249Z,22.73
2023-05-23T00:56:59.451Z,23.55
2023-05-23T00:59:27.221Z,22.88
2023-05-23T01:01:57.108Z,22.20
2023-05-23T01:04:26.558Z,22.88
2023-05-23T01:06:56.098Z,23.25
2023-05-23T01:09:25.839Z,19.92
2023-05-23T01:12:21.057Z,20.23
2023-05-23T01:15:11.282Z,20.85
2023-05-23T01:18:13.007Z,19.00
2023-05-23T01:21:20.751Z,18.75
2023-05-23T01:24:10.495Z,20.38
2023-05-23T01:26:58.803Z,22.25
2023-05-23T01:29:47.129Z,21.90
2023-05-23T01:32:16.571Z,21.27
2023-05-23T01:34:44.298Z,20.40
2023-05-23T01:37:14.734Z,21.15
2023-05-23T01:39:42.634Z,21.35
2023-05-23T01:42:10.060Z,24.02
2023-05-23T01:44:38.529Z,21.77
2023-05-23T01:47:08.774Z,18.45
2023-05-23T01:49:37.602Z,21.20
2023-05-23T01:52:06.059Z,18.35
2023-05-23T01:54:35.580Z,18.67
2023-05-23T01:57:03.329Z,18.38
2023-05-23T01:59:30.687Z,18.67
2023-05-23T02:01:58.527Z,21.35
2023-05-23T02:04:25.775Z,19.13
2023-05-23T02:06:52.905Z,17.30
2023-05-23T02:09:20.020Z,18.50
2023-05-23T02:11:47.187Z,19.10
2023-05-23T02:14:14.353Z,21.33
2023-05-23T02:16:42.613Z,20.85
2023-05-23T02:19:09.819Z,22.08
2023-05-23T02:21:38.057Z,23.88
2023-05-23T02:24:05.277Z,22.27
2023-05-23T02:26:32.733Z,25.08
2023-05-23T02:28:59.916Z,24.50
2023-05-23T02:31:28.010Z,25.48
2023-05-23T02:33:55.574Z,27.38
2023-05-23T02:36:22.976Z,25.88
2023-05-23T02:38:50.633Z,29.63
2023-05-23T02:41:17.925Z,30.25
2023-05-23T02:43:48.283Z,23.50
2023-05-23T02:46:16.927Z,25.10
2023-05-23T02:48:45.420Z,27.95
2023-05-23T02:51:13.772Z,22.77
2023-05-23T02:53:41.324Z,20.83
2023-05-23T02:56:08.762Z,19.15
2023-05-23T02:58:36.956Z,16.17
2023-05-23T03:01:06.424Z,20.73
2023-05-23T03:03:35.354Z,22.13
2023-05-23T03:06:04.987Z,18.75
2023-05-23T03:08:32.243Z,21.05
2023-05-23T03:10:59.553Z,23.92
2023-05-23T03:13:26.758Z,28.45
2023-05-23T03:15:54.369Z,24.23
2023-05-23T03:18:21.487Z,28.88
2023-05-23T03:20:48.576Z,26.88
2023-05-23T03:23:15.803Z,25.65
2023-05-23T03:25:43.697Z,25.92
2023-05-23T03:28:12.268Z,26.25
2023-05-23T03:30:39.378Z,23.88
2023-05-23T03:33:07.519Z,21.67
2023-05-23T03:35:35.318Z,28.67
2023-05-23T03:38:02.712Z,21.90
2023-05-23T03:40:29.760Z,25.52
2023-05-23T03:43:08.585Z,23.42
2023-05-23T03:45:38.696Z,28.23
2023-05-23T03:48:12.486Z,24.90
2023-05-23T03:50:40.994Z,21.73
2023-05-23T03:53:08.517Z,26.10
2023-05-23T03:55:36.385Z,20.88
2023-05-23T03:58:03.805Z,20.45
2023-05-23T04:00:31.042Z,20.65
2023-05-23T04:02:59.759Z,22.50
2023-05-23T04:05:26.994Z,21.88
2023-05-23T04:07:54.246Z,19.40
2023-05-23T04:10:21.414Z,21.13
2023-05-23T04:12:48.670Z,19.55
2023-05-23T04:15:18.154Z,18.00
2023-05-23T04:18:08.158Z,20.33
2023-05-23T04:20:35.714Z,16.95
2023-05-23T04:23:03.077Z,18.63
2023-05-23T04:25:32.412Z,18.88
2023-05-23T04:28:07.131Z,19.60
2023-05-23T04:30:34.685Z,16.20
2023-05-23T04:33:02.052Z,17.83
2023-05-23T04:35:29.670Z,16.13
2023-05-23T04:37:56.923Z,18.60
2023-05-23T04:40:26.066Z,18.45
2023-05-23T04:43:09.341Z,16.95
2023-05-23T04:45:51.615Z,21.67
2023-05-23T04:48:38.636Z,16.13
2023-05-23T04:51:09.147Z,21.25
2023-05-23T04:53:41.304Z,17.52
2023-05-23T04:56:10.037Z,18.75
2023-05-23T04:58:40.764Z,20.73
2023-05-23T05:01:11.672Z,17.58
2023-05-23T05:03:39.287Z,15.50
2023-05-23T05:06:06.904Z,17.08
2023-05-23T05:08:36.321Z,16.65
2023-05-23T05:11:05.238Z,18.02
2023-05-23T05:13:32.899Z,16.85
2023-05-23T05:16:01.025Z,17.58
2023-05-23T05:18:28.731Z,15.07
2023-05-23T05:20:58.509Z,13.82
2023-05-23T05:23:28.887Z,17.98
2023-05-23T05:25:57.114Z,15.68
2023-05-23T05:28:25.017Z,14.95
2023-05-23T05:30:55.732Z,16.08
2023-05-23T05:33:24.905Z,16.83
2023-05-23T05:36:07.991Z,18.00
2023-05-23T05:38:35.196Z,16.98
2023-05-23T05:41:02.490Z,21.70
2023-05-23T05:43:34.495Z,19.08
2023-05-23T05:46:01.708Z,20.55
2023-05-23T05:48:29.444Z,23.25
2023-05-23T05:51:01.308Z,17.27
2023-05-23T05:53:31.325Z,20.90
2023-05-23T05:55:58.781Z,20.48
2023-05-23T05:58:25.995Z,20.95
2023-05-23T06:01:00.672Z,22.35
2023-05-23T06:03:28.198Z,17.08
2023-05-23T06:05:56.160Z,18.45
2023-05-23T06:08:23.398Z,17.25
2023-05-23T06:10:50.855Z,15.85
2023-05-23T06:13:18.209Z,16.92
2023-05-23T06:15:49.721Z,16.60
2023-05-23T06:18:17.996Z,20.55
2023-05-23T06:20:45.513Z,16.00
2023-05-23T06:23:16.209Z,20.27
2023-05-23T06:25:43.480Z,17.13
2023-05-23T06:28:10.550Z,12.93
2023-05-23T06:30:39.156Z,16.25
2023-05-23T06:33:08.555Z,18.77
2023-05-23T06:35:35.943Z,17.42
2023-05-23T06:38:03.217Z,13.90
2023-05-23T06:40:30.449Z,17.15
2023-05-23T06:42:57.596Z,15.32
2023-05-23T06:45:39.009Z,15.35
2023-05-23T06:48:06.616Z,13.00
2023-05-23T06:50:36.277Z,17.35
2023-05-23T06:53:04.321Z,13.15
2023-05-23T06:55:33.899Z,13.63
2023-05-23T06:58:04.121Z,12.52
2023-05-23T07:00:32.011Z,16.20
2023-05-23T07:03:13.121Z,14.77
2023-05-23T07:05:41.673Z,16.85
2023-05-23T07:08:11.356Z,12.38
2023-05-23T07:10:41.964Z,12.93
2023-05-23T07:13:23.283Z,16.98
2023-05-23T07:15:50.618Z,14.88
2023-05-23T07:18:18.892Z,15.00
2023-05-23T07:20:46.017Z,13.20
2023-05-23T07:23:17.451Z,17.40
2023-05-23T07:26:01.322Z,16.95
2023-05-23T07:28:37.662Z,20.17
2023-05-23T07:31:05.126Z,13.82
2023-05-23T07:33:34.591Z,15.45
2023-05-23T07:36:04.470Z,16.27
2023-05-23T07:38:31.673Z,17.75
2023-05-23T07:41:10.963Z,17.27
2023-05-23T07:43:39.692Z,16.67
2023-05-23T07:46:07.285Z,17.67
2023-05-23T07:48:34.555Z,15.63
2023-05-23T07:51:01.983Z,14.15
2023-05-23T07:53:29.602Z,14.25
2023-05-23T07:55:58.076Z,19.15
2023-05-23T07:58:28.658Z,16.85
2023-05-23T08:00:55.876Z,19.15
2023-05-23T08:03:49.088Z,15.38
2023-05-23T08:06:23.188Z,18.75
2023-05-23T08:08:51.133Z,17.80
2023-05-23T08:11:18.218Z,21.73
2023-05-23T08:13:50.073Z,16.50
2023-05-23T08:16:38.025Z,15.07
2023-05-23T08:19:13.388Z,16.88
2023-05-23T08:21:41.331Z,17.13
2023-05-23T08:24:08.878Z,15.43
2023-05-23T08:26:37.658Z,18.00
2023-05-23T08:29:06.878Z,17.75
2023-05-23T08:31:36.630Z,17.67
2023-05-23T08:34:05.162Z,14.07
2023-05-23T08:36:36.550Z,14.63
2023-05-23T08:39:05.821Z,14.63
2023-05-23T08:41:37.226Z,16.23
2023-05-23T08:44:09.706Z,17.35
2023-05-23T08:46:46.920Z,15.43
2023-05-23T08:49:23.631Z,15.80
2023-05-23T08:51:55.706Z,17.10
2023-05-23T08:54:23.052Z,18.60
2023-05-23T08:56:52.290Z,14.82
2023-05-23T08:59:22.032Z,15.60
2023-05-23T09:01:51.500Z,14.30
2023-05-23T09:04:18.964Z,13.43
2023-05-23T09:07:00.307Z,17.25
2023-05-23T09:09:29.979Z,16.67
2023-05-23T09:11:59.814Z,26.73
2023-05-23T09:14:30.404Z,20.52
2023-05-23T09:17:04.633Z,18.35
2023-05-23T09:19:33.374Z,16.60
2023-05-23T09:22:13.558Z,13.65
2023-05-23T09:24:55.516Z,15.70
2023-05-23T09:27:23.702Z,16.13
2023-05-23T09:29:51.149Z,13.85
2023-05-23T09:32:21.296Z,17.95
2023-05-23T09:35:00.606Z,15.13
2023-05-23T09:37:39.283Z,15.57
2023-05-23T09:40:16.457Z,14.57
2023-05-23T09:42:54.105Z,16.20
2023-05-23T09:45:21.215Z,16.00
2023-05-23T09:47:54.510Z,13.52
2023-05-23T09:50:22.781Z,14.13
2023-05-23T09:52:51.289Z,16.92
2023-05-23T09:55:19.914Z,15.40
2023-05-23T09:57:54.591Z,15.98
2023-05-23T10:00:21.801Z,13.23
2023-05-23T10:03:08.376Z,15.98
2023-05-23T10:05:38.911Z,14.40
2023-05-23T10:08:13.837Z,15.13
2023-05-23T10:11:16.584Z,15.15
2023-05-23T10:13:49.833Z,13.70
2023-05-23T10:16:29.227Z,13.65
2023-05-23T10:19:07.880Z,13.85
2023-05-23T10:21:50.529Z,17.67
2023-05-23T10:24:18.820Z,14.05
2023-05-23T10:26:46.548Z,15.00
2023-05-23T10:29:13.583Z,16.75
2023-05-23T10:31:41.392Z,13.88
2023-05-23T10:34:25.772Z,11.38
2023-05-23T10:37:23.125Z,11.85
2023-05-23T10:40:32.897Z,16.33
2023-05-23T10:43:08.259Z,14.43
2023-05-23T10:45:42.967Z,11.05
2023-05-23T10:48:31.306Z,13.38
2023-05-23T10:51:10.986Z,10.77
2023-05-23T10:53:42.291Z,18.33
2023-05-23T10:56:11.637Z,14.65
2023-05-23T10:58:41.622Z,14.65
2023-05-23T11:01:13.875Z,12.30
2023-05-23T11:03:47.446Z,13.40
2023-05-23T11:06:45.119Z,12.38
2023-05-23T11:09:19.438Z,12.57
2023-05-23T11:11:59.560Z,9.07
2023-05-23T11:14:33.731Z,11.10
2023-05-23T11:17:13.119Z,15.85
2023-05-23T11:19:40.660Z,11.65
2023-05-23T11:22:10.888Z,13.45
2023-05-23T11:24:55.518Z,10.50
2023-05-23T11:27:38.279Z,14.10
2023-05-23T11:30:13.630Z,11.68
2023-05-23T11:32:42.568Z,11.65
2023-05-23T11:35:12.788Z,12.82
2023-05-23T11:37:40.409Z,13.60
2023-05-23T11:40:47.232Z,11.93
2023-05-23T11:43:16.828Z,10.40
2023-05-23T11:45:46.714Z,14.38
2023-05-23T11:48:17.052Z,11.02
2023-05-23T11:50:51.852Z,11.95
2023-05-23T11:53:21.957Z,15.20
2023-05-23T11:55:55.218Z,14.30
2023-05-23T11:58:26.796Z,15.05
2023-05-23T12:01:09.346Z,13.40
2023-05-23T12:03:52.247Z,14.43
2023-05-23T12:06:20.131Z,13.05
2023-05-23T12:08:51.713Z,11.98
2023-05-23T12:11:19.034Z,15.00
2023-05-23T12:13:46.198Z,11.43
2023-05-23T12:16:16.290Z,8.73
2023-05-23T12:18:43.774Z,12.60
2023-05-23T12:21:11.590Z,13.27
2023-05-23T12:23:40.472Z,15.98
2023-05-23T12:26:08.151Z,14.75
2023-05-23T12:28:42.316Z,13.38
2023-05-23T12:31:10.767Z,16.77
2023-05-23T12:33:45.959Z,11.93
2023-05-23T12:36:14.122Z,14.18
2023-05-23T12:38:45.526Z,10.88
2023-05-23T12:41:17.258Z,16.42
2023-05-23T12:43:55.878Z,12.98
2023-05-23T12:46:25.498Z,11.38
2023-05-23T12:48:53.909Z,10.73
2023-05-23T12:51:22.061Z,12.63
2023-05-23T12:53:49.138Z,15.27
2023-05-23T12:56:16.344Z,11.32
2023-05-23T12:58:43.886Z,10.15
2023-05-23T13:01:11.453Z,10.25
2023-05-23T13:03:38.764Z,8.10
2023-05-23T13:06:07.215Z,10.70
2023-05-23T13:08:34.341Z,12.95
2023-05-23T13:11:01.539Z,14.77
2023-05-23T13:13:28.921Z,11.43
2023-05-23T13:15:59.230Z,14.70
2023-05-23T13:18:26.459Z,14.05
2023-05-23T13:20:53.648Z,14.07
2023-05-23T13:23:20.861Z,15.70
2023-05-23T13:25:50.483Z,13.27
2023-05-23T13:28:18.194Z,12.32
2023-05-23T13:30:47.345Z,14.68
2023-05-23T13:33:15.026Z,13.35
2023-05-23T13:35:42.820Z,8.35
2023-05-23T13:38:10.227Z,8.52
2023-05-23T13:40:37.320Z,8.93
2023-05-23T13:43:04.489Z,13.73
2023-05-23T13:45:31.601Z,12.10
2023-05-23T13:47:58.733Z,11.07
2023-05-23T13:50:26.048Z,13.75
2023-05-23T13:52:53.138Z,10.73
2023-05-23T13:55:20.271Z,11.90
2023-05-23T13:57:47.576Z,9.63
2023-05-23T14:00:16.219Z,10.90
2023-05-23T14:02:43.350Z,10.57
2023-05-23T14:05:10.418Z,10.40
2023-05-23T14:07:38.323Z,13.73
2023-05-23T14:10:07.189Z,15.07
2023-05-23T14:12:34.231Z,9.50
2023-05-23T14:15:01.641Z,11.65
2023-05-23T14:17:28.752Z,9.88
2023-05-23T14:19:56.092Z,13.05
2023-05-23T14:22:23.149Z,11.95
2023-05-23T14:24:50.308Z,9.55
2023-05-23T14:27:18.499Z,9.52
2023-05-23T14:29:46.868Z,10.30
2023-05-23T14:32:14.039Z,11.30
2023-05-23T14:34:41.604Z,8.85
2023-05-23T14:37:08.678Z,10.82
2023-05-23T14:39:36.116Z,8.85
2023-05-23T14:42:03.798Z,9.20
2023-05-23T14:44:31.013Z,11.30
2023-05-23T14:46:58.220Z,8.63
2023-05-23T14:49:25.367Z,12.93
2023-05-23T14:51:52.490Z,11.77
2023-05-23T14:54:19.734Z,10.30
2023-05-23T14:56:47.005Z,9.93
2023-05-23T14:59:14.234Z,8.05
2023-05-23T15:01:41.688Z,10.73
2023-05-23T15:04:10.061Z,11.32
2023-05-23T15:06:39.364Z,11.25
2023-05-23T15:09:07.596Z,10.02
2023-05-23T15:11:38.854Z,10.00
2023-05-23T15:14:06.502Z,8.95
2023-05-23T15:16:36.582Z,8.65
2023-05-23T15:19:05.738Z,11.95
2023-05-23T15:21:32.900Z,9.77
2023-05-23T15:24:00.096Z,10.32
2023-05-23T15:26:27.409Z,12.48
2023-05-23T15:28:54.659Z,11.13
2023-05-23T15:31:21.868Z,12.15
2023-05-23T15:33:48.964Z,13.95
2023-05-23T15:36:16.103Z,15.77
2023-05-23T15:38:43.857Z,14.18
2023-05-23T15:41:12.303Z,12.90
2023-05-23T15:43:39.475Z,14.88
2023-05-23T15:46:06.625Z,13.25
2023-05-23T15:48:33.971Z,12.50
2023-05-23T15:51:01.068Z,10.75
2023-05-23T15:53:29.372Z,12.93
2023-05-23T15:55:57.698Z,12.48
2023-05-23T15:58:24.742Z,12.95
2023-05-23T16:00:51.913Z,12.60
2023-05-23T16:03:18.999Z,14.30
2023-05-23T16:05:46.478Z,14.32
2023-05-23T16:08:13.565Z,15.75
2023-05-23T16:10:40.645Z,11.20
2023-05-23T16:13:09.002Z,13.43
2023-05-23T16:15:36.346Z,11.35
2023-05-23T16:18:04.050Z,10.85
2023-05-23T16:20:31.367Z,13.40
2023-05-23T16:22:58.365Z,11.27
2023-05-23T16:25:25.451Z,11.20
2023-05-23T16:27:52.541Z,11.13
2023-05-23T16:30:20.211Z,9.68
2023-05-23T16:32:47.262Z,13.93
2023-05-23T16:35:14.417Z,13.02
2023-05-23T16:37:41.654Z,10.45
2023-05-23T16:40:09.473Z,11.77
2023-05-23T16:42:37.389Z,12.45
2023-05-23T16:45:05.636Z,11.35
2023-05-23T16:47:32.697Z,11.98
2023-05-23T16:49:59.881Z,12.70
2023-05-23T16:52:26.979Z,10.98
2023-05-23T16:54:55.824Z,12.90
2023-05-23T16:57:22.945Z,11.65
2023-05-23T16:59:49.953Z,12.40
2023-05-23T17:02:17.075Z,11.00
2023-05-23T17:04:44.295Z,11.27
2023-05-23T17:07:11.501Z,11.38
2023-05-23T17:09:39.215Z,12.85
2023-05-23T17:12:06.803Z,15.27
2023-05-23T17:14:34.270Z,11.00
2023-05-23T17:17:03.475Z,11.55
2023-05-23T17:19:30.737Z,14.00
2023-05-23T17:21:59.101Z,11.38
2023-05-23T17:24:26.345Z,11.40
2023-05-23T17:26:53.631Z,11.55
2023-05-23T17:29:21.121Z,12.73
2023-05-23T17:31:48.181Z,13.00
2023-05-23T17:34:15.970Z,12.18
2023-05-23T17:36:43.084Z,11.35
2023-05-23T17:39:10.125Z,11.75
2023-05-23T17:41:37.480Z,11.70
2023-05-23T17:44:04.638Z,13.88
2023-05-23T17:46:31.901Z,10.70
2023-05-23T17:48:59.011Z,11.48
2023-05-23T17:51:26.594Z,12.05
2023-05-23T17:53:54.099Z,11.30
2023-05-23T17:56:24.934Z,17.02
2023-05-23T17:58:52.681Z,9.43
2023-05-23T18:01:19.793Z,13.02
2023-05-23T18:03:48.973Z,12.50
2023-05-23T18:06:16.522Z,17.52
2023-05-23T18:08:43.647Z,14.00
2023-05-23T18:11:10.704Z,15.25
2023-05-23T18:13:37.743Z,13.20
2023-05-23T18:16:05.006Z,13.10
2023-05-23T18:18:32.507Z,13.13
2023-05-23T18:20:59.680Z,17.95
2023-05-23T18:23:26.829Z,14.20
2023-05-23T18:25:54.388Z,13.82
2023-05-23T18:28:21.803Z,16.27
2023-05-23T18:30:49.002Z,14.60
2023-05-23T18:33:16.463Z,11.65
2023-05-23T18:35:43.895Z,16.85
2023-05-23T18:38:11.561Z,15.00
2023-05-23T18:40:38.846Z,14.82
2023-05-23T18:43:06.127Z,16.30
2023-05-23T18:45:33.238Z,14.88
2023-05-23T18:48:00.463Z,16.33
2023-05-23T18:50:27.898Z,16.23
2023-05-23T18:52:55.045Z,13.68
2023-05-23T18:55:22.191Z,17.25
2023-05-23T18:57:49.251Z,14.00
2023-05-23T19:00:16.667Z,12.27
2023-05-23T19:02:45.237Z,14.70
2023-05-23T19:05:12.869Z,14.00
2023-05-23T19:07:40.558Z,17.25
2023-05-23T19:10:08.345Z,17.45
2023-05-23T19:12:35.693Z,13.95
2023-05-23T19:15:03.643Z,18.65
2023-05-23T19:17:31.090Z,13.48
2023-05-23T19:20:00.685Z,13.68
2023-05-23T19:22:29.666Z,14.73
2023-05-23T19:25:04.737Z,17.20
2023-05-23T19:27:32.384Z,14.10
2023-05-23T19:29:59.441Z,15.65
2023-05-23T19:32:26.589Z,12.25
2023-05-23T19:34:54.277Z,16.25
2023-05-23T19:37:22.422Z,16.08
2023-05-23T19:39:49.587Z,19.42
2023-05-23T19:42:17.024Z,15.15
2023-05-23T19:44:44.740Z,17.17
2023-05-23T19:47:12.207Z,17.15
2023-05-23T19:49:39.348Z,22.50
2023-05-23T19:52:06.613Z,16.77
2023-05-23T19:54:33.911Z,18.45
2023-05-23T19:57:01.143Z,19.33
2023-05-23T19:59:28.178Z,19.13
2023-05-23T20:01:55.486Z,20.98
2023-05-23T20:04:24.980Z,18.77
2023-05-23T20:06:52.828Z,18.27
2023-05-23T20:09:20.167Z,20.48
2023-05-23T20:11:47.870Z,17.30
2023-05-23T20:14:15.262Z,18.95
2023-05-23T20:16:42.537Z,15.10
2023-05-23T20:19:10.047Z,17.75
2023-05-23T20:21:37.363Z,23.60
2023-05-23T20:24:04.716Z,21.90
2023-05-23T20:26:31.817Z,19.60
2023-05-23T20:28:59.919Z,19.17
2023-05-23T20:31:27.097Z,21.02
2023-05-23T20:33:54.226Z,19.98
2023-05-23T20:36:21.460Z,21.60
2023-05-23T20:38:48.576Z,22.33
2023-05-23T20:41:15.680Z,18.75
2023-05-23T20:43:44.585Z,21.58
2023-05-23T20:46:13.726Z,22.05
2023-05-23T20:48:41.671Z,19.30
2023-05-23T20:51:08.877Z,18.55
2023-05-23T20:53:36.123Z,18.23
2023-05-23T20:56:03.728Z,19.85
2023-05-23T20:58:30.871Z,19.90
2023-05-23T21:00:59.338Z,20.42
2023-05-23T21:03:26.510Z,21.05
2023-05-23T21:05:53.689Z,24.05
2023-05-23T21:08:21.784Z,22.10
2023-05-23T21:10:52.394Z,19.63
2023-05-23T21:13:21.416Z,21.25
2023-05-23T21:15:48.652Z,23.40
2023-05-23T21:18:15.802Z,23.00
2023-05-23T21:20:43.333Z,21.80
2023-05-23T21:23:10.627Z,20.88
2023-05-23T21:25:38.038Z,18.85
2023-05-23T21:28:05.102Z,20.52
2023-05-23T21:30:32.433Z,23.50
2023-05-23T21:32:59.847Z,22.60
2023-05-23T21:35:27.092Z,21.52
2023-05-23T21:37:54.365Z,19.40
2023-05-23T21:40:21.511Z,21.63
2023-05-23T21:42:48.631Z,22.77
2023-05-23T21:45:16.007Z,22.55
2023-05-23T21:47:43.138Z,21.98
2023-05-23T21:50:11.002Z,21.40
2023-05-23T21:52:38.153Z,24.30
2023-05-23T21:55:05.548Z,24.40
2023-05-23T21:57:32.606Z,23.08
2023-05-23T21:59:59.655Z,24.88
2023-05-23T22:02:26.778Z,24.48
2023-05-23T22:04:54.033Z,20.35
2023-05-23T22:07:25.236Z,25.48
2023-05-23T22:09:53.430Z,25.55
2023-05-23T22:12:20.591Z,24.20
2023-05-23T22:14:47.799Z,20.42
2023-05-23T22:17:14.964Z,21.20
2023-05-23T22:19:42.160Z,22.88
2023-05-23T22:22:12.005Z,20.23
2023-05-23T22:24:39.195Z,23.90
2023-05-23T22:27:06.430Z,22.98
2023-05-23T22:29:33.628Z,24.17
2023-05-23T22:32:00.879Z,21.23
2023-05-23T22:34:28.156Z,24.20
2023-05-23T22:36:57.018Z,26.15
2023-05-23T22:39:26.206Z,22.98
2023-05-23T22:41:53.628Z,22.70
2023-05-23T22:44:21.045Z,24.00
2023-05-23T22:46:48.197Z,19.55
2023-05-23T22:49:15.487Z,25.20
2023-05-23T22:51:44.662Z,22.25
2023-05-23T22:54:11.887Z,26.42
2023-05-23T22:56:39.064Z,22.58
2023-05-23T22:59:06.362Z,23.50
2023-05-23T23:01:33.834Z,25.15
2023-05-23T23:04:00.953Z,23.52
2023-05-23T23:06:29.337Z,24.23
2023-05-23T23:08:56.606Z,26.35
2023-05-23T23:11:23.633Z,20.15
2023-05-23T23:13:50.871Z,23.85
2023-05-23T23:16:19.385Z,25.02
2023-05-23T23:18:47.207Z,26.60
2023-05-23T23:21:14.325Z,24.38
2023-05-23T23:23:42.440Z,24.33
2023-05-23T23:26:09.613Z,21.60
2023-05-23T23:28:36.730Z,26.48
2023-05-23T23:31:03.882Z,23.75
2023-05-23T23:33:31.092Z,22.77
2023-05-23T23:35:58.339Z,22.30
2023-05-23T23:38:25.600Z,26.92
2023-05-23T23:40:52.687Z,27.67
2023-05-23T23:43:19.725Z,25.23
2023-05-23T23:45:47.062Z,22.40
2023-05-23T23:48:14.960Z,33.58
2023-05-23T23:50:42.491Z,27.30
2023-05-23T23:53:10.126Z,27.08
2023-05-23T23:55:37.121Z,26.30
2023-05-23T23:58:06.409Z,22.05
